Time;durP1;ratioP1;P1;durP2;ratioP2;P2;SDS_P1;SDS_P2;PMS_P1;PMS_P2;Temp;Humidity;BMP_temperature;BMP_pressure;BME280_temperature;BME280_humidity;BME280_pressure;Samples;Min_cycle;Max_cycle;Signal;HPM_P1;HPM_P2
2023/04/20 00:01:20;;;;;;;;;4.50;2.00;;;;;;;;5017041;28;45576;-78
2023/04/20 00:03:45;;;;;;;;;4.67;2.00;;;;;;;;5017076;28;45618;-78
2023/04/20 00:06:11;;;;;;;;;2.33;1.67;;;;;;;;5016844;28;46610;-78
2023/04/20 00:08:36;;;;;;;;;7.25;2.25;;;;;;;;5017140;28;45428;-78
2023/04/20 00:11:01;;;;;;;;;4.67;2.00;;;;;;;;5016258;28;45559;-78
2023/04/20 00:13:26;;;;;;;;;4.00;2.33;;;;;;;;5016945;28;45304;-79
2023/04/20 00:15:51;;;;;;;;;3.00;2.33;;;;;;;;5016672;28;46572;-78
2023/04/20 00:18:17;;;;;;;;;6.67;3.00;;;;;;;;5016745;28;45684;-78
2023/04/20 00:20:42;;;;;;;;;2.67;2.00;;;;;;;;5017078;28;45409;-78
2023/04/20 00:23:07;;;;;;;;;7.00;3.00;;;;;;;;5016814;28;45522;-78
2023/04/20 00:25:32;;;;;;;;;4.00;2.00;;;;;;;;5016634;28;46109;-78
2023/04/20 00:27:58;;;;;;;;;4.50;3.50;;;;;;;;5016574;28;45343;-78
2023/04/20 00:30:24;;;;;;;;;2.25;2.25;;;;;;;;5016378;28;45326;-78
2023/04/20 00:32:49;;;;;;;;;4.33;1.00;;;;;;;;5016678;28;45335;-78
2023/04/20 00:35:14;;;;;;;;;12.00;4.00;;;;;;;;5016300;28;47208;-78
2023/04/20 00:37:39;;;;;;;;;5.00;3.75;;;;;;;;5016426;28;45428;-78
2023/04/20 00:40:05;;;;;;;;;2.00;2.00;;;;;;;;5016775;28;45277;-78
2023/04/20 00:42:30;;;;;;;;;4.00;2.00;;;;;;;;5016436;28;45457;-78
2023/04/20 00:44:55;;;;;;;;;4.00;2.00;;;;;;;;5015719;28;45816;-78
2023/04/20 00:47:21;;;;;;;;;3.00;2.00;;;;;;;;5016475;28;45418;-78
2023/04/20 00:49:46;;;;;;;;;3.67;3.00;;;;;;;;5016676;28;45295;-78
2023/04/20 00:52:11;;;;;;;;;2.00;1.00;;;;;;;;5016350;28;45417;-78
2023/04/20 00:54:37;;;;;;;;;3.33;2.00;;;;;;;;5015996;28;45400;-78
2023/04/20 00:57:03;;;;;;;;;3.00;2.00;;;;;;;;5016016;28;45360;-78
2023/04/20 00:59:28;;;;;;;;;7.00;2.00;;;;;;;;5015953;28;45277;-78
2023/04/20 01:01:53;;;;;;;;;4.00;3.00;;;;;;;;5016626;28;45559;-78
2023/04/20 01:04:19;;;;;;;;;7.33;3.00;;;;;;;;5015765;28;46487;-78
2023/04/20 01:06:44;;;;;;;;;7.00;2.00;;;;;;;;5015801;28;45332;-78
2023/04/20 01:09:11;;;;;;;;;2.00;1.00;;;;;;;;5016062;28;45431;-78
2023/04/20 01:11:36;;;;;;;;;3.50;2.00;;;;;;;;5016120;28;45411;-78
2023/04/20 01:14:01;;;;;;;;;5.33;2.00;;;;;;;;5015440;28;45529;-79
2023/04/20 01:16:26;;;;;;;;;2.33;1.00;;;;;;;;5016003;28;45566;-78
2023/04/20 01:18:52;;;;;;;;;4.67;1.00;;;;;;;;5015953;28;45350;-78
2023/04/20 01:21:18;;;;;;;;;6.67;2.67;;;;;;;;5016100;28;45301;-78
2023/04/20 01:23:44;;;;;;;;;2.25;2.25;;;;;;;;5015795;28;45506;-78
2023/04/20 01:26:10;;;;;;;;;3.75;2.25;;;;;;;;5016056;28;45339;-79
2023/04/20 01:28:35;;;;;;;;;2.00;2.00;;;;;;;;5014305;28;45361;-78
2023/04/20 01:31:04;;;;;;;;;4.00;2.00;;;;;;;;5015991;28;45231;-78
2023/04/20 01:33:29;;;;;;;;;1.50;1.50;;;;;;;;5015466;28;46828;-78
2023/04/20 01:35:55;;;;;;;;;2.67;2.67;;;;;;;;5015922;28;45488;-78
2023/04/20 01:38:21;;;;;;;;;2.33;1.33;;;;;;;;5014995;28;45551;-78
2023/04/20 01:40:46;;;;;;;;;6.75;2.00;;;;;;;;5014526;28;45537;-79
2023/04/20 01:43:11;;;;;;;;;4.00;2.75;;;;;;;;5015145;28;47224;-78
2023/04/20 01:45:37;;;;;;;;;1.00;1.00;;;;;;;;5015455;28;45487;-78
2023/04/20 01:48:02;;;;;;;;;2.00;1.00;;;;;;;;5015633;28;45399;-78
2023/04/20 01:50:27;;;;;;;;;2.00;2.00;;;;;;;;5015556;28;45354;-79
2023/04/20 01:52:52;;;;;;;;;2.67;1.67;;;;;;;;5015257;28;47505;-78
2023/04/20 01:55:17;;;;;;;;;2.00;2.00;;;;;;;;5015338;28;45291;-78
2023/04/20 01:57:43;;;;;;;;;2.25;2.25;;;;;;;;5015241;28;45520;-78
2023/04/20 02:00:09;;;;;;;;;1.75;1.00;;;;;;;;5015425;28;45301;-78
2023/04/20 02:02:34;;;;;;;;;5.50;1.75;;;;;;;;5013790;28;46373;-78
2023/04/20 02:04:59;;;;;;;;;2.25;2.00;;;;;;;;5015131;28;45378;-78
2023/04/20 02:07:25;;;;;;;;;2.25;2.25;;;;;;;;5015521;28;45281;-78
2023/04/20 02:09:50;;;;;;;;;6.00;3.25;;;;;;;;5014657;28;45937;-78
2023/04/20 02:12:16;;;;;;;;;3.33;2.00;;;;;;;;5014545;28;46408;-78
2023/04/20 02:14:41;;;;;;;;;2.00;2.00;;;;;;;;5014999;28;45272;-78
2023/04/20 02:17:06;;;;;;;;;1.33;1.33;;;;;;;;5015470;28;45336;-78
2023/04/20 02:19:32;;;;;;;;;3.75;3.00;;;;;;;;5015183;28;45297;-78
2023/04/20 02:21:57;;;;;;;;;1.00;1.00;;;;;;;;5014927;28;46145;-78
2023/04/20 02:24:22;;;;;;;;;2.00;2.00;;;;;;;;5014567;28;45499;-76
2023/04/20 02:26:47;;;;;;;;;2.00;2.00;;;;;;;;5015259;28;45305;-78
2023/04/20 02:29:12;;;;;;;;;2.00;2.00;;;;;;;;5015286;28;45361;-78
2023/04/20 02:31:38;;;;;;;;;5.33;1.00;;;;;;;;5015061;28;45273;-78
2023/04/20 02:34:04;;;;;;;;;1.00;1.00;;;;;;;;5014953;28;45499;-78
2023/04/20 02:36:30;;;;;;;;;0.50;0.50;;;;;;;;5014825;28;45353;-78
2023/04/20 02:38:55;;;;;;;;;4.25;1.25;;;;;;;;5014739;28;45313;-77
2023/04/20 02:41:20;;;;;;;;;1.67;1.00;;;;;;;;5014780;28;45399;-78
2023/04/20 02:43:45;;;;;;;;;2.33;1.00;;;;;;;;5014825;28;45335;-78
2023/04/20 02:46:11;;;;;;;;;4.33;2.00;;;;;;;;5014989;28;45317;-78
2023/04/20 02:48:36;;;;;;;;;6.00;2.00;;;;;;;;5014847;28;45322;-78
2023/04/20 02:51:01;;;;;;;;;3.00;2.00;;;;;;;;5017739;28;46543;-79
2023/04/20 02:53:26;;;;;;;;;6.67;1.33;;;;;;;;5017703;28;45347;-78
2023/04/20 02:55:51;;;;;;;;;1.00;1.00;;;;;;;;5018336;28;45319;-78
2023/04/20 02:58:16;;;;;;;;;5.00;2.00;;;;;;;;5018407;28;45562;-78
2023/04/20 03:00:42;;;;;;;;;3.67;2.00;;;;;;;;5017777;28;46236;-78
2023/04/20 03:03:07;;;;;;;;;3.00;2.00;;;;;;;;5018219;28;45447;-77
2023/04/20 03:05:32;;;;;;;;;2.00;2.00;;;;;;;;5018221;28;45612;-77
2023/04/20 03:07:57;;;;;;;;;2.00;1.33;;;;;;;;5017809;28;45545;-77
2023/04/20 03:10:22;;;;;;;;;1.00;1.00;;;;;;;;5017887;28;46258;-77
2023/04/20 03:12:48;;;;;;;;;4.67;1.00;;;;;;;;5017774;28;45293;-77
2023/04/20 03:15:14;;;;;;;;;7.00;1.67;;;;;;;;5017954;28;45332;-77
2023/04/20 03:17:39;;;;;;;;;2.25;1.50;;;;;;;;5017877;28;45305;-78
2023/04/20 03:20:05;;;;;;;;;2.00;1.00;;;;;;;;5017701;28;46538;-77
2023/04/20 03:22:30;;;;;;;;;1.00;0.00;;;;;;;;5017342;28;45557;-77
2023/04/20 03:24:56;;;;;;;;;1.67;1.33;;;;;;;;5017829;28;45280;-78
2023/04/20 03:27:21;;;;;;;;;0.67;0.67;;;;;;;;5017902;28;45269;-79
2023/04/20 03:29:47;;;;;;;;;1.33;1.33;;;;;;;;5017554;28;46644;-78
2023/04/20 03:32:12;;;;;;;;;1.00;1.00;;;;;;;;5017531;28;45340;-79
2023/04/20 03:34:38;;;;;;;;;5.67;1.33;;;;;;;;5017490;28;45334;-80
2023/04/20 03:37:03;;;;;;;;;6.33;3.00;;;;;;;;5017363;28;45340;-79
2023/04/20 03:39:28;;;;;;;;;2.33;2.33;;;;;;;;5016242;28;46469;-78
2023/04/20 03:41:53;;;;;;;;;0.67;0.67;;;;;;;;5017692;28;45374;-79
2023/04/20 03:44:18;;;;;;;;;2.00;2.00;;;;;;;;5017502;28;45486;-79
2023/04/20 03:46:44;;;;;;;;;2.00;1.00;;;;;;;;5017328;28;45401;-79
2023/04/20 03:49:09;;;;;;;;;2.25;1.00;;;;;;;;5017346;28;46243;-78
2023/04/20 03:51:34;;;;;;;;;3.00;1.00;;;;;;;;5017090;28;45468;-78
2023/04/20 03:53:59;;;;;;;;;1.25;1.00;;;;;;;;5017495;28;45375;-78
2023/04/20 03:56:26;;;;;;;;;2.00;1.75;;;;;;;;5017403;28;45399;-79
2023/04/20 03:58:51;;;;;;;;;3.50;1.00;;;;;;;;5017057;28;45402;-79
2023/04/20 04:01:16;;;;;;;;;2.33;1.00;;;;;;;;5016681;28;45399;-78
2023/04/20 04:03:41;;;;;;;;;2.00;1.00;;;;;;;;5017093;28;45368;-78
2023/04/20 04:06:08;;;;;;;;;0.00;0.00;;;;;;;;5015531;28;45368;-78
2023/04/20 04:08:33;;;;;;;;;2.00;1.50;;;;;;;;5016881;28;48122;-78
2023/04/20 04:10:58;;;;;;;;;1.00;1.00;;;;;;;;5016161;28;45380;-78
2023/04/20 04:13:23;;;;;;;;;5.00;2.00;;;;;;;;5016923;28;45542;-78
2023/04/20 04:15:49;;;;;;;;;5.00;1.00;;;;;;;;5017173;28;45411;-78
2023/04/20 04:18:14;;;;;;;;;5.00;1.50;;;;;;;;5016782;28;45352;-78
2023/04/20 04:20:39;;;;;;;;;1.00;1.00;;;;;;;;5016658;28;45383;-79
2023/04/20 04:23:05;;;;;;;;;1.67;1.00;;;;;;;;5015550;28;45413;-78
2023/04/20 04:25:30;;;;;;;;;5.75;2.00;;;;;;;;5016609;28;45230;-77
2023/04/20 04:27:56;;;;;;;;;1.00;1.00;;;;;;;;5016806;28;45915;-77
2023/04/20 04:30:22;;;;;;;;;5.25;1.25;;;;;;;;5016650;28;45220;-77
2023/04/20 04:32:48;;;;;;;;;1.50;1.50;;;;;;;;5016839;28;45247;-77
2023/04/20 04:35:14;;;;;;;;;1.00;1.00;;;;;;;;5016375;28;45321;-78
2023/04/20 04:37:40;;;;;;;;;1.25;1.25;;;;;;;;5016546;28;46540;-78
2023/04/20 04:40:08;;;;;;;;;3.00;1.00;;;;;;;;5015274;28;45290;-78
2023/04/20 04:42:34;;;;;;;;;2.00;1.00;;;;;;;;5016834;28;45682;-79
2023/04/20 04:45:00;;;;;;;;;1.50;1.00;;;;;;;;5016192;28;45299;-77
2023/04/20 04:47:28;;;;;;;;;1.00;1.00;;;;;;;;5016432;28;46287;-80
2023/04/20 04:49:54;;;;;;;;;3.50;1.00;;;;;;;;5016253;28;45903;-80
2023/04/20 04:52:19;;;;;;;;;1.25;1.00;;;;;;;;5016646;28;45419;-78
2023/04/20 04:54:45;;;;;;;;;1.25;1.25;;;;;;;;5016360;28;45340;-78
2023/04/20 04:57:10;;;;;;;;;1.67;1.67;;;;;;;;5016232;28;46713;-78
2023/04/20 04:59:35;;;;;;;;;5.50;1.00;;;;;;;;5016254;28;45435;-78
2023/04/20 05:02:01;;;;;;;;;3.00;1.00;;;;;;;;5015107;28;45454;-78
2023/04/20 05:04:26;;;;;;;;;3.00;1.00;;;;;;;;5016174;28;45791;-77
2023/04/20 05:06:51;;;;;;;;;1.00;1.00;;;;;;;;5016135;28;45567;-78
2023/04/20 05:09:16;;;;;;;;;2.00;1.00;;;;;;;;5016213;28;45422;-77
2023/04/20 05:11:41;;;;;;;;;1.75;1.75;;;;;;;;5016214;28;45443;-80
2023/04/20 05:14:07;;;;;;;;;2.67;2.00;;;;;;;;5015029;28;45323;-80
2023/04/20 05:16:32;;;;;;;;;3.00;3.00;;;;;;;;5016102;28;45467;-78
2023/04/20 05:18:57;;;;;;;;;2.33;2.33;;;;;;;;5015766;28;45453;-78
2023/04/20 05:21:22;;;;;;;;;2.00;1.00;;;;;;;;5014800;28;45419;-78
2023/04/20 05:23:47;;;;;;;;;4.33;2.00;;;;;;;;5016306;28;45395;-77
2023/04/20 05:26:12;;;;;;;;;3.67;1.33;;;;;;;;5015821;28;46495;-77
2023/04/20 05:28:38;;;;;;;;;2.00;2.00;;;;;;;;5016020;28;45916;-77
2023/04/20 05:31:03;;;;;;;;;5.33;2.00;;;;;;;;5015915;28;45567;-77
2023/04/20 05:33:28;;;;;;;;;2.67;1.67;;;;;;;;5013996;28;45432;-78
2023/04/20 05:35:56;;;;;;;;;4.33;3.00;;;;;;;;5010994;28;45470;-79
2023/04/20 05:38:21;;;;;;;;;2.00;2.00;;;;;;;;4999991;28;45329;-78
2023/04/20 05:40:47;;;;;;;;;1.00;1.00;;;;;;;;4997837;28;45290;-78
2023/04/20 05:43:12;;;;;;;;;1.33;1.33;;;;;;;;5015969;28;45464;-77
2023/04/20 05:45:37;;;;;;;;;3.00;2.00;;;;;;;;5015431;28;46164;-78
2023/04/20 05:48:02;;;;;;;;;5.00;1.00;;;;;;;;5014016;28;45498;-78
2023/04/20 05:50:28;;;;;;;;;1.00;1.00;;;;;;;;5015662;28;45337;-79
2023/04/20 05:52:53;;;;;;;;;2.00;2.00;;;;;;;;5013914;28;45316;-78
2023/04/20 05:55:18;;;;;;;;;3.00;1.67;;;;;;;;4995533;28;46705;-80
2023/04/20 05:57:44;;;;;;;;;3.00;1.75;;;;;;;;4995682;28;45384;-80
2023/04/20 06:00:10;;;;;;;;;2.00;1.00;;;;;;;;4995774;28;45294;-79
2023/04/20 06:02:35;;;;;;;;;3.00;1.00;;;;;;;;4993974;28;46067;-78
2023/04/20 06:05:01;;;;;;;;;6.00;1.67;;;;;;;;4995521;28;46375;-81
2023/04/20 06:07:26;;;;;;;;;7.00;2.00;;;;;;;;5004110;28;45354;-81
2023/04/20 06:09:51;;;;;;;;;2.00;2.00;;;;;;;;5014486;28;45320;-81
2023/04/20 06:12:16;;;;;;;;;2.33;1.33;;;;;;;;5013862;28;45336;-81
2023/04/20 06:14:41;;;;;;;;;5.67;1.67;;;;;;;;5013877;28;47597;-81
2023/04/20 06:17:06;;;;;;;;;6.00;1.67;;;;;;;;5014958;28;45340;-81
2023/04/20 06:19:32;;;;;;;;;5.00;1.33;;;;;;;;5015682;28;45439;-80
2023/04/20 06:21:57;;;;;;;;;2.67;2.67;;;;;;;;5015599;28;45413;-80
2023/04/20 06:24:23;;;;;;;;;2.00;2.00;;;;;;;;5015590;28;45344;-81
2023/04/20 06:26:48;;;;;;;;;5.50;1.50;;;;;;;;5014387;28;45424;-80
2023/04/20 06:29:13;;;;;;;;;2.00;2.00;;;;;;;;5001013;28;45334;-80
2023/04/20 06:31:38;;;;;;;;;3.33;2.33;;;;;;;;5009997;28;45337;-81
2023/04/20 06:34:03;;;;;;;;;2.67;2.00;;;;;;;;5018761;28;46218;-80
2023/04/20 06:36:29;;;;;;;;;5.00;1.00;;;;;;;;5018493;28;45555;-80
2023/04/20 06:38:55;;;;;;;;;5.00;2.00;;;;;;;;5018865;28;45421;-81
2023/04/20 06:41:20;;;;;;;;;2.00;1.00;;;;;;;;5018680;28;45335;-80
2023/04/20 06:43:45;;;;;;;;;3.00;1.67;;;;;;;;5017724;28;46642;-81
2023/04/20 06:46:10;;;;;;;;;4.33;2.00;;;;;;;;5008266;28;45264;-80
2023/04/20 06:48:35;;;;;;;;;5.67;2.00;;;;;;;;4998365;28;45282;-81
2023/04/20 06:51:01;;;;;;;;;1.00;1.00;;;;;;;;4997172;28;45583;-81
2023/04/20 06:53:26;;;;;;;;;5.67;1.00;;;;;;;;5003541;28;45519;-81
2023/04/20 06:55:52;;;;;;;;;5.00;1.33;;;;;;;;5013828;28;45370;-79
2023/04/20 06:58:18;;;;;;;;;3.00;1.00;;;;;;;;5013268;28;45360;-80
2023/04/20 07:00:43;;;;;;;;;1.67;1.67;;;;;;;;5010143;28;45301;-80
2023/04/20 07:03:08;;;;;;;;;2.00;2.00;;;;;;;;5009872;28;46163;-80
2023/04/20 07:05:35;;;;;;;;;6.00;3.00;;;;;;;;5014187;28;45259;-78
2023/04/20 07:08:00;;;;;;;;;3.00;3.00;;;;;;;;4998354;28;45431;-78
2023/04/20 07:10:25;;;;;;;;;3.67;2.00;;;;;;;;4998318;28;45390;-77
2023/04/20 07:12:50;;;;;;;;;1.00;1.00;;;;;;;;5013017;28;47400;-78
2023/04/20 07:15:15;;;;;;;;;1.33;1.33;;;;;;;;5013893;28;45504;-80
2023/04/20 07:17:41;;;;;;;;;2.00;2.00;;;;;;;;5009502;28;45563;-78
2023/04/20 07:20:07;;;;;;;;;2.00;2.00;;;;;;;;5004241;28;45538;-79
2023/04/20 07:22:35;;;;;;;;;2.00;2.00;;;;;;;;4997684;28;45449;-77
2023/04/20 07:25:02;;;;;;;;;2.75;2.00;;;;;;;;4999591;28;45498;-78
2023/04/20 07:27:28;;;;;;;;;3.50;2.00;;;;;;;;4998328;28;45546;-78
2023/04/20 07:29:54;;;;;;;;;4.50;2.00;;;;;;;;5005740;28;46618;-79
2023/04/20 07:32:19;;;;;;;;;5.00;2.00;;;;;;;;5006505;28;47161;-78
2023/04/20 07:34:44;;;;;;;;;2.75;2.00;;;;;;;;5002267;28;45824;-80
2023/04/20 07:37:11;;;;;;;;;2.75;2.75;;;;;;;;5009670;28;45357;-79
2023/04/20 07:39:36;;;;;;;;;2.50;1.00;;;;;;;;5016671;28;45470;-80
2023/04/20 07:42:02;;;;;;;;;7.33;3.67;;;;;;;;5001329;28;46615;-79
2023/04/20 07:44:27;;;;;;;;;2.25;2.25;;;;;;;;5003503;28;45337;-79
2023/04/20 07:46:54;;;;;;;;;2.33;1.67;;;;;;;;5016086;28;46521;-78
2023/04/20 07:49:19;;;;;;;;;7.50;3.00;;;;;;;;5014240;28;45700;-79
2023/04/20 07:51:44;;;;;;;;;2.25;2.25;;;;;;;;4996382;28;46123;-79
2023/04/20 07:54:10;;;;;;;;;5.00;3.00;;;;;;;;4996401;28;45392;-78
2023/04/20 07:56:35;;;;;;;;;4.50;2.00;;;;;;;;4996703;28;45800;-79
2023/04/20 07:59:00;;;;;;;;;3.00;2.75;;;;;;;;4998355;28;45587;-79
2023/04/20 08:01:26;;;;;;;;;5.25;3.00;;;;;;;;4996518;28;46132;-78
2023/04/20 08:03:51;;;;;;;;;5.50;4.25;;;;;;;;4996470;28;45439;-79
2023/04/20 08:06:16;;;;;;;;;8.00;4.00;;;;;;;;4997397;28;45391;-78
2023/04/20 08:08:42;;;;;;;;;5.25;5.00;;;;;;;;4996547;28;45396;-79
2023/04/20 08:11:07;;;;;;;;;5.67;2.33;;;;;;;;4997969;28;46113;-79
2023/04/20 08:13:32;;;;;;;;;5.00;5.00;;;;;;;;5015811;28;45417;-79
2023/04/20 08:15:57;;;;;;;;;2.00;2.00;;;;;;;;5010816;28;45543;-81
2023/04/20 08:18:22;;;;;;;;;5.67;2.67;;;;;;;;5001030;28;45542;-79
2023/04/20 08:20:49;;;;;;;;;3.67;2.00;;;;;;;;5027180;28;45421;-79
2023/04/20 08:23:15;;;;;;;;;6.75;3.00;;;;;;;;5035647;28;45741;-79
2023/04/20 08:25:40;;;;;;;;;8.67;3.00;;;;;;;;5031718;28;45591;-80
2023/04/20 08:28:05;;;;;;;;;3.00;2.67;;;;;;;;4998693;28;47976;-79
2023/04/20 08:30:31;;;;;;;;;5.50;3.00;;;;;;;;5006743;28;47053;-80
2023/04/20 08:32:57;;;;;;;;;9.00;4.33;;;;;;;;5006638;28;45555;-79
2023/04/20 08:35:22;;;;;;;;;5.75;3.25;;;;;;;;5015024;28;45382;-80
2023/04/20 08:37:47;;;;;;;;;6.67;4.33;;;;;;;;5014847;28;45628;-80
2023/04/20 08:40:12;;;;;;;;;6.00;2.00;;;;;;;;4999573;28;46347;-80
2023/04/20 08:42:38;;;;;;;;;3.00;3.00;;;;;;;;5014415;28;45458;-80
2023/04/20 08:45:03;;;;;;;;;3.00;2.67;;;;;;;;5014980;28;45512;-80
2023/04/20 08:47:30;;;;;;;;;6.50;3.25;;;;;;;;5013602;28;45537;-80
2023/04/20 08:49:55;;;;;;;;;6.25;2.75;;;;;;;;5012515;28;48209;-81
2023/04/20 08:52:20;;;;;;;;;2.50;2.50;;;;;;;;5002607;28;45399;-80
2023/04/20 08:54:47;;;;;;;;;5.50;4.25;;;;;;;;5004373;28;45425;-80
2023/04/20 08:57:12;;;;;;;;;7.33;2.67;;;;;;;;5012336;28;45297;-80
2023/04/20 08:59:37;;;;;;;;;7.00;5.33;;;;;;;;5013384;28;46449;-79
2023/04/20 09:02:10;;;;;;;;;7.00;3.00;;;;;;;;5015162;28;45313;-79
2023/04/20 09:04:35;;;;;;;;;6.25;2.50;;;;;;;;5014561;28;45566;-80
2023/04/20 09:07:01;;;;;;;;;3.00;3.00;;;;;;;;5012021;28;45609;-81
2023/04/20 09:09:26;;;;;;;;;2.00;2.00;;;;;;;;5005104;28;46958;-80
2023/04/20 09:12:05;;;;;;;;;1.00;1.00;;;;;;;;5014481;28;45305;-80
2023/04/20 09:14:41;;;;;;;;;2.75;2.00;;;;;;;;5011235;28;45482;-79
2023/04/20 09:17:06;;;;;;;;;6.75;2.00;;;;;;;;5002674;28;45458;-80
2023/04/20 09:19:31;;;;;;;;;2.33;2.33;;;;;;;;5005077;28;45581;-79
2023/04/20 09:21:57;;;;;;;;;2.75;2.00;;;;;;;;5005491;28;45428;-80
2023/04/20 09:24:29;;;;;;;;;6.00;4.00;;;;;;;;5008415;28;45515;-80
2023/04/20 09:26:55;;;;;;;;;3.50;2.50;;;;;;;;5006977;28;45510;-80
2023/04/20 09:29:22;;;;;;;;;2.75;2.75;;;;;;;;5018907;28;47529;-78
2023/04/20 09:31:47;;;;;;;;;2.75;1.50;;;;;;;;5011692;28;46882;-77
2023/04/20 09:34:12;;;;;;;;;3.25;2.25;;;;;;;;5006733;28;45383;-80
2023/04/20 09:36:41;;;;;;;;;1.33;1.33;;;;;;;;5012464;28;45827;-82
2023/04/20 09:39:10;;;;;;;;;2.75;2.75;;;;;;;;5012901;28;47333;-81
2023/04/20 09:41:36;;;;;;;;;2.00;2.00;;;;;;;;5023897;28;45904;-82
2023/04/20 09:44:01;;;;;;;;;3.00;1.75;;;;;;;;5022384;28;45400;-82
2023/04/20 09:46:27;;;;;;;;;3.00;2.50;;;;;;;;5007521;28;45499;-82
2023/04/20 09:48:53;;;;;;;;;1.00;1.00;;;;;;;;5014803;28;46541;-82
2023/04/20 09:51:19;;;;;;;;;3.75;3.00;;;;;;;;5005794;28;45357;-82
2023/04/20 09:53:45;;;;;;;;;6.00;1.50;;;;;;;;5014759;28;45402;-80
2023/04/20 09:56:11;;;;;;;;;3.00;3.00;;;;;;;;5014472;28;45449;-80
2023/04/20 09:58:37;;;;;;;;;4.00;3.00;;;;;;;;5014628;28;45276;-81
2023/04/20 10:01:02;;;;;;;;;5.75;3.00;;;;;;;;5013058;28;45377;-80
2023/04/20 10:03:27;;;;;;;;;1.00;1.00;;;;;;;;5014881;28;45369;-81
2023/04/20 10:05:54;;;;;;;;;6.33;3.00;;;;;;;;5010502;28;45613;-80
2023/04/20 10:08:19;;;;;;;;;2.00;2.00;;;;;;;;5010457;28;47454;-81
2023/04/20 10:10:46;;;;;;;;;4.00;3.00;;;;;;;;5011058;28;45435;-84
2023/04/20 10:13:11;;;;;;;;;3.00;3.00;;;;;;;;5004973;28;45278;-81
2023/04/20 10:15:38;;;;;;;;;3.50;2.00;;;;;;;;5002224;28;45506;-81
2023/04/20 10:18:15;;;;;;;;;5.00;2.00;;;;;;;;5008517;28;46927;-81
2023/04/20 10:20:40;;;;;;;;;2.00;2.00;;;;;;;;5014705;28;45377;-81
2023/04/20 10:23:08;;;;;;;;;7.75;3.00;;;;;;;;5008407;28;45350;-81
2023/04/20 10:25:33;;;;;;;;;3.00;1.75;;;;;;;;5008040;28;45408;-83
2023/04/20 10:28:01;;;;;;;;;3.00;2.00;;;;;;;;5014125;28;46300;-81
2023/04/20 10:30:28;;;;;;;;;2.50;2.50;;;;;;;;5014313;28;45344;-81
2023/04/20 10:33:02;;;;;;;;;5.25;3.25;;;;;;;;5013142;28;45407;-81
2023/04/20 10:35:28;;;;;;;;;3.75;2.00;;;;;;;;5014520;28;45466;-82
2023/04/20 10:37:54;;;;;;;;;3.25;1.25;;;;;;;;5014155;28;46081;-82
2023/04/20 10:40:28;;;;;;;;;3.00;3.00;;;;;;;;5014359;28;45379;-80
2023/04/20 10:42:53;;;;;;;;;2.00;2.00;;;;;;;;5014434;28;45356;-81
2023/04/20 10:45:20;;;;;;;;;2.00;0.00;;;;;;;;5014283;28;45373;-81
2023/04/20 10:47:45;;;;;;;;;2.50;2.50;;;;;;;;5014385;28;46737;-82
2023/04/20 10:50:14;;;;;;;;;1.67;1.67;;;;;;;;5003597;28;45528;-80
2023/04/20 10:52:40;;;;;;;;;3.25;3.25;;;;;;;;5002086;28;45538;-81
2023/04/20 10:55:16;;;;;;;;;6.75;3.50;;;;;;;;5014112;28;45484;-79
2023/04/20 10:57:43;;;;;;;;;8.00;3.25;;;;;;;;5023035;28;46387;-79
2023/04/20 11:00:19;;;;;;;;;5.25;5.25;;;;;;;;5033909;28;45919;-80
2023/04/20 11:02:45;;;;;;;;;5.75;3.50;;;;;;;;5012876;28;45473;-80
2023/04/20 11:05:11;;;;;;;;;2.00;2.00;;;;;;;;5013939;28;45387;-81
2023/04/20 11:07:45;;;;;;;;;2.00;2.00;;;;;;;;5013576;28;46925;-82
2023/04/20 11:10:10;;;;;;;;;4.25;3.75;;;;;;;;5028735;28;45575;-81
2023/04/20 11:12:38;;;;;;;;;3.00;2.67;;;;;;;;5023432;28;46069;-81
2023/04/20 11:15:04;;;;;;;;;8.75;3.00;;;;;;;;5017169;28;45431;-80
2023/04/20 11:17:33;;;;;;;;;6.50;3.75;;;;;;;;5017155;28;47222;-80
2023/04/20 11:20:07;;;;;;;;;3.50;2.75;;;;;;;;5010849;28;45810;-80
2023/04/20 11:22:33;;;;;;;;;6.25;5.00;;;;;;;;5017064;28;45402;-80
2023/04/20 11:25:04;;;;;;;;;9.00;5.67;;;;;;;;5002899;28;45400;-80
2023/04/20 11:27:29;;;;;;;;;3.25;3.00;;;;;;;;5014424;28;46144;-81
2023/04/20 11:29:56;;;;;;;;;5.67;3.00;;;;;;;;5006351;28;45556;-80
2023/04/20 11:32:21;;;;;;;;;9.00;3.25;;;;;;;;5012736;28;45458;-80
2023/04/20 11:34:56;;;;;;;;;3.75;3.75;;;;;;;;5016517;28;45556;-80
2023/04/20 11:37:21;;;;;;;;;7.00;5.00;;;;;;;;5016641;28;46385;-79
2023/04/20 11:39:57;;;;;;;;;4.00;3.00;;;;;;;;5023612;28;45414;-81
2023/04/20 11:42:22;;;;;;;;;4.00;4.00;;;;;;;;5036780;28;45451;-81
2023/04/20 11:44:47;;;;;;;;;7.33;5.00;;;;;;;;5036838;28;45446;-81
2023/04/20 11:47:13;;;;;;;;;5.00;4.33;;;;;;;;5017664;28;46536;-80
2023/04/20 11:49:39;;;;;;;;;6.75;3.75;;;;;;;;5016709;28;45935;-82
2023/04/20 11:52:04;;;;;;;;;9.00;4.00;;;;;;;;5014435;28;45400;-81
2023/04/20 11:54:32;;;;;;;;;4.00;3.75;;;;;;;;5014794;28;45505;-82
2023/04/20 11:56:58;;;;;;;;;4.00;4.00;;;;;;;;5008110;28;47091;-81
2023/04/20 11:59:24;;;;;;;;;4.00;4.00;;;;;;;;5031631;28;45898;-81
2023/04/20 12:01:49;;;;;;;;;5.75;4.00;;;;;;;;5016842;28;45266;-81
2023/04/20 12:04:14;;;;;;;;;5.67;4.00;;;;;;;;5012734;28;45590;-81
2023/04/20 12:06:40;;;;;;;;;6.50;4.25;;;;;;;;5000297;28;47897;-80
2023/04/20 12:09:05;;;;;;;;;4.50;4.00;;;;;;;;5005738;28;45480;-81
2023/04/20 12:11:30;;;;;;;;;5.00;5.00;;;;;;;;5015215;28;45455;-79
2023/04/20 12:13:56;;;;;;;;;5.67;4.00;;;;;;;;5010886;28;45488;-78
2023/04/20 12:16:21;;;;;;;;;7.00;4.67;;;;;;;;5005267;28;45423;-80
2023/04/20 12:18:46;;;;;;;;;5.67;4.00;;;;;;;;5016227;28;45419;-80
2023/04/20 12:21:12;;;;;;;;;5.75;5.00;;;;;;;;5009998;28;45491;-78
2023/04/20 12:23:37;;;;;;;;;7.00;4.00;;;;;;;;5007482;28;45354;-78
2023/04/20 12:26:03;;;;;;;;;6.00;4.00;;;;;;;;5018279;28;46817;-78
2023/04/20 12:28:28;;;;;;;;;4.75;4.75;;;;;;;;5011269;28;45541;-80
2023/04/20 12:30:54;;;;;;;;;5.25;4.00;;;;;;;;5000389;28;45447;-79
2023/04/20 12:33:19;;;;;;;;;6.33;4.33;;;;;;;;5008464;28;45427;-79
2023/04/20 12:35:44;;;;;;;;;6.00;4.33;;;;;;;;5012186;28;45493;-80
2023/04/20 12:38:10;;;;;;;;;5.33;5.00;;;;;;;;5014161;28;45360;-80
2023/04/20 12:40:35;;;;;;;;;11.25;5.75;;;;;;;;5014929;28;45335;-80
2023/04/20 12:43:00;;;;;;;;;6.33;5.33;;;;;;;;5013791;28;45487;-80
2023/04/20 12:45:25;;;;;;;;;5.33;4.00;;;;;;;;5008955;28;47156;-78
2023/04/20 12:47:50;;;;;;;;;6.00;5.00;;;;;;;;5009168;28;45349;-79
2023/04/20 12:50:16;;;;;;;;;10.00;4.67;;;;;;;;5015381;28;45380;-78
2023/04/20 12:52:41;;;;;;;;;4.33;4.33;;;;;;;;5008092;28;45706;-78
2023/04/20 12:55:06;;;;;;;;;6.00;6.00;;;;;;;;5007521;28;46330;-78
2023/04/20 12:57:32;;;;;;;;;5.75;5.75;;;;;;;;5007464;28;45424;-78
2023/04/20 12:59:58;;;;;;;;;7.00;6.00;;;;;;;;5015409;28;45424;-78
2023/04/20 13:02:23;;;;;;;;;7.25;6.25;;;;;;;;5014093;28;45395;-77
2023/04/20 13:04:48;;;;;;;;;10.67;5.67;;;;;;;;5013201;28;47214;-78
2023/04/20 13:07:14;;;;;;;;;9.33;6.00;;;;;;;;5013857;28;45787;-79
2023/04/20 13:09:39;;;;;;;;;5.25;4.75;;;;;;;;5015520;28;45809;-78
2023/04/20 13:12:04;;;;;;;;;7.67;4.00;;;;;;;;5014329;28;45731;-78
2023/04/20 13:14:30;;;;;;;;;4.00;4.00;;;;;;;;5008510;28;45398;-78
2023/04/20 13:16:55;;;;;;;;;4.75;4.50;;;;;;;;5012868;28;45718;-79
2023/04/20 13:19:21;;;;;;;;;5.33;3.67;;;;;;;;5015573;28;45371;-78
2023/04/20 13:21:46;;;;;;;;;11.00;6.50;;;;;;;;5010266;28;45484;-78
2023/04/20 13:24:11;;;;;;;;;5.67;5.00;;;;;;;;5014306;28;45692;-78
2023/04/20 13:26:36;;;;;;;;;5.67;3.67;;;;;;;;5015435;28;45354;-78
2023/04/20 13:29:02;;;;;;;;;4.00;2.67;;;;;;;;5015191;28;45360;-78
2023/04/20 13:31:27;;;;;;;;;9.33;5.00;;;;;;;;5005701;28;45543;-78
2023/04/20 13:33:53;;;;;;;;;6.25;6.00;;;;;;;;5009820;28;47821;-78
2023/04/20 13:36:22;;;;;;;;;7.25;4.00;;;;;;;;5014093;28;45471;-78
2023/04/20 13:38:47;;;;;;;;;10.50;4.25;;;;;;;;5009108;28;45536;-78
2023/04/20 13:41:13;;;;;;;;;7.00;4.00;;;;;;;;5014331;28;45505;-78
2023/04/20 13:43:39;;;;;;;;;7.25;5.00;;;;;;;;5007618;28;46430;-77
2023/04/20 13:46:04;;;;;;;;;8.50;5.00;;;;;;;;5014385;28;45382;-78
2023/04/20 13:48:29;;;;;;;;;10.75;6.00;;;;;;;;5013240;28;45372;-77
2023/04/20 13:50:54;;;;;;;;;9.00;5.00;;;;;;;;5011980;28;45390;-78
2023/04/20 13:53:20;;;;;;;;;11.67;4.33;;;;;;;;5008235;28;45497;-78
2023/04/20 13:55:45;;;;;;;;;6.25;4.75;;;;;;;;5014895;28;45365;-78
2023/04/20 13:58:11;;;;;;;;;5.00;4.00;;;;;;;;5013912;28;46037;-78
2023/04/20 14:00:36;;;;;;;;;8.00;5.67;;;;;;;;5013796;28;45439;-80
2023/04/20 14:03:01;;;;;;;;;9.33;6.33;;;;;;;;5014521;28;45479;-79
2023/04/20 14:05:27;;;;;;;;;6.00;4.00;;;;;;;;5013056;28;45525;-79
2023/04/20 14:07:52;;;;;;;;;4.00;4.00;;;;;;;;5013953;28;45388;-80
2023/04/20 14:10:17;;;;;;;;;4.33;3.33;;;;;;;;5014627;28;45487;-80
2023/04/20 14:12:42;;;;;;;;;7.67;4.00;;;;;;;;5012685;28;46479;-78
2023/04/20 14:15:08;;;;;;;;;4.00;4.00;;;;;;;;5014072;28;45305;-78
2023/04/20 14:17:33;;;;;;;;;7.00;4.50;;;;;;;;5014349;28;45571;-79
2023/04/20 14:19:58;;;;;;;;;5.67;5.67;;;;;;;;5011991;28;45526;-80
2023/04/20 14:22:23;;;;;;;;;5.00;4.00;;;;;;;;5007728;28;46427;-80
2023/04/20 14:24:48;;;;;;;;;5.00;3.67;;;;;;;;5011537;28;45563;-79
2023/04/20 14:27:14;;;;;;;;;9.67;6.67;;;;;;;;5007454;28;45390;-79
2023/04/20 14:29:39;;;;;;;;;7.25;5.75;;;;;;;;5006562;28;45522;-79
2023/04/20 14:32:04;;;;;;;;;3.33;3.00;;;;;;;;5012392;28;45759;-79
2023/04/20 14:34:30;;;;;;;;;7.50;4.25;;;;;;;;5011685;28;45493;-77